Terminal Aerodrome Forecast
Issued by NWS Blacksburg, VA

Current Version | Previous Version | Text Only | Print | Product List | Glossary Off
Versions: 1 2 3 4 5 6 7 8 9 10 11 12 13 14 15 16 17 18 19 20 21 22 23 24 25 26 27 28 29 30 31 32 33 34 35 36 37 38 39

000
FTUS41 KRNK 211725
TAFBLF
TAF
KBLF 211725Z 2118/2218 17009KT P6SM SCT250
     FM212000 17008KT P6SM BKN090
     FM220200 16006KT P6SM VCSH BKN045
     FM220600 17004KT P6SM -RA BKN025 OVC040
     FM221000 VRB03KT P6SM OVC004
     FM221600 00000KT 1SM BR OVC003=

USA.gov is the U.S. government's official web portal to all federal, state and local government web resources and services.